Aérodrome :
LOGIN :

S'inscrire | Disclaimer

   EN    FR    IT 

 










Légende :    VFR   VFR Marginal   IFR   IFR Intensif   IFR Très Intensif
Visi : 
Plafond : 
>= 8 km
>= 3000ft
5 à 8 km
1000 à 3000 ft
1500m à 5 km
500 à 1000 ft
800 à 1500m
200 à 500 ft
< 800m
< 200 ft
Symboles :   Orages  Brouillard  Fortes neiges  Fortes précipitations  Vent > 20 kt
SIGMETs :   Divers  Orages  Givrage  Turbulence  Onde Orograph.  Cendres Volcan.






- Altitude de l'aérodrome : 362 ft
- Code IATA : WAW


EPWA - Warsaw Okecie

DERNIER METAR :
  • 110530Z 17003KT 4000 BR NSC M06/M07 Q1022 TEMPO 2500 BR

METARs EXPIRÉS :
  • 110500Z 16002KT 4000 BR NSC M05/M05 Q1022 TEMPO 2500 BR
  • 110430Z 17003KT 5000 MIFG BR NSC M06/M06 Q1022 TEMPO 2500 BR
  • 110400Z 18002KT 5000 1200W MIFG BR NSC M05/M05 Q1022 TEMPO 1500 BR
  • 110330Z 14002KT 3200 MIFG BR NSC M04/M05 Q1022 TEMPO 1500 BR
  • 110300Z 15002KT 4000 MIFG BR NSC M05/M05 Q1022 TEMPO 2500 BR

TAF TAF EPWA
Valide du 11 à 06h jusqu'au 12 à 06h UTC


110530Z 1106/1206 VRB04KT 8000 NSC
TEMPO 1106/1109 3000 BR BKN006
PROB40 1106/1108 0800 FZFG BKN001
BECMG 1108/1110 15010KT
PROB40 1120/1206 4500 BR BKN004 BKN007



MET'MAP, la Météo Aéronautique d'un coup d'oeil ! - Copyright ORBIFLY Décembre 2007 - Disclaimer

ORBIFLY MET'MAP TEAM :

Programmation & Développement : Alexandra Zaïnal
Sur une idée originale de : Baudouin d'Aumeries
Assistance à la programmation : Marc-Olivier Méhu
Soutien technique & logistique : Manuel Goepfert

Contact : metmap@orbifly.com




SOURCES & CREDITS :

   NOAA